Time;durP1;ratioP1;P1;durP2;ratioP2;P2;SDS_P1;SDS_P2;PMS_P1;PMS_P2;Temp;Humidity;BMP_temperature;BMP_pressure;BME280_temperature;BME280_humidity;BME280_pressure;Samples;Min_cycle;Max_cycle;Signal;HPM_P1;HPM_P2
2023/04/24 00:01:07;;;;;;;0.60;0.60;;;;;;;;;;5096312;28;20178;-79
2023/04/24 00:03:33;;;;;;;0.60;0.60;;;;;;;;;;5100645;28;20685;-78
2023/04/24 00:06:00;;;;;;;0.60;0.60;;;;;;;;;;5104395;28;20295;-79
2023/04/24 00:08:26;;;;;;;0.60;0.60;;;;;;;;;;5103970;28;20182;-79
2023/04/24 00:10:52;;;;;;;0.60;0.60;;;;;;;;;;5103201;28;20667;-79
2023/04/24 00:13:18;;;;;;;0.50;0.50;;;;;;;;;;5102737;28;20285;-79
2023/04/24 00:15:44;;;;;;;0.60;0.60;;;;;;;;;;5104553;28;20261;-79
2023/04/24 00:18:10;;;;;;;0.60;0.60;;;;;;;;;;5101876;28;20181;-81
2023/04/24 00:20:37;;;;;;;0.60;0.60;;;;;;;;;;5097933;28;20185;-83
2023/04/24 00:23:03;;;;;;;0.70;0.70;;;;;;;;;;5097043;28;20194;-83
2023/04/24 00:25:29;;;;;;;0.77;0.77;;;;;;;;;;5097979;28;20177;-82
2023/04/24 00:27:55;;;;;;;0.60;0.60;;;;;;;;;;5097695;28;20173;-83
2023/04/24 00:30:21;;;;;;;0.70;0.70;;;;;;;;;;5097784;28;20174;-82
2023/04/24 00:32:47;;;;;;;0.70;0.70;;;;;;;;;;5097048;28;20238;-82
2023/04/24 00:35:14;;;;;;;0.63;0.63;;;;;;;;;;5096756;28;20217;-84
2023/04/24 00:37:40;;;;;;;0.50;0.50;;;;;;;;;;5096934;28;20580;-81
2023/04/24 00:40:06;;;;;;;0.60;0.60;;;;;;;;;;5084581;28;20190;-81
2023/04/24 00:42:33;;;;;;;0.60;0.60;;;;;;;;;;5076116;28;20265;-82
2023/04/24 00:44:59;;;;;;;0.60;0.60;;;;;;;;;;5076411;28;20195;-79
2023/04/24 00:47:25;;;;;;;0.63;0.63;;;;;;;;;;5076138;28;20679;-82
2023/04/24 00:49:51;;;;;;;0.60;0.60;;;;;;;;;;5075334;28;20174;-79
2023/04/24 00:52:17;;;;;;;0.70;0.70;;;;;;;;;;5075478;28;20167;-82
2023/04/24 00:54:45;;;;;;;0.50;0.50;;;;;;;;;;5076048;28;20252;-81
2023/04/24 00:57:11;;;;;;;0.60;0.60;;;;;;;;;;5076218;28;20178;-81
2023/04/24 00:59:37;;;;;;;0.70;0.70;;;;;;;;;;5075896;28;20182;-82
2023/04/24 01:02:03;;;;;;;0.60;0.60;;;;;;;;;;5076163;28;20178;-80
2023/04/24 01:04:29;;;;;;;0.50;0.50;;;;;;;;;;5076136;28;20198;-81
2023/04/24 01:06:55;;;;;;;0.70;0.70;;;;;;;;;;5076019;28;20175;-81
2023/04/24 01:09:23;;;;;;;0.60;0.60;;;;;;;;;;5077022;28;20292;-80
2023/04/24 01:11:50;;;;;;;0.70;0.70;;;;;;;;;;5076140;28;20208;-81
2023/04/24 01:14:16;;;;;;;0.60;0.60;;;;;;;;;;5075677;28;20202;-78
2023/04/24 01:16:42;;;;;;;0.50;0.50;;;;;;;;;;5076278;28;20170;-80
2023/04/24 01:19:11;;;;;;;0.50;0.50;;;;;;;;;;5076515;28;20177;-79
2023/04/24 01:21:37;;;;;;;0.70;0.70;;;;;;;;;;5076148;28;20304;-80
2023/04/24 01:24:04;;;;;;;0.57;0.57;;;;;;;;;;5075943;28;20213;-80
2023/04/24 01:26:30;;;;;;;0.70;0.70;;;;;;;;;;5076138;28;20178;-80
2023/04/24 01:28:56;;;;;;;0.57;0.57;;;;;;;;;;5076297;28;20208;-78
2023/04/24 01:31:22;;;;;;;0.60;0.60;;;;;;;;;;5076161;28;20170;-79
2023/04/24 01:33:48;;;;;;;0.50;0.50;;;;;;;;;;5075044;28;20221;-80
2023/04/24 01:36:14;;;;;;;0.60;0.60;;;;;;;;;;5075483;28;20171;-81
2023/04/24 01:38:40;;;;;;;0.60;0.60;;;;;;;;;;5076625;28;20202;-78
2023/04/24 01:41:06;;;;;;;0.60;0.60;;;;;;;;;;5075369;28;20174;-80
2023/04/24 01:43:32;;;;;;;0.60;0.60;;;;;;;;;;5074960;28;20194;-81
2023/04/24 01:45:58;;;;;;;0.67;0.67;;;;;;;;;;5075565;28;20187;-79
2023/04/24 01:48:24;;;;;;;0.57;0.57;;;;;;;;;;5075810;28;20582;-81
2023/04/24 01:50:50;;;;;;;0.60;0.60;;;;;;;;;;5075295;28;20178;-79
2023/04/24 01:53:16;;;;;;;0.60;0.60;;;;;;;;;;5076151;28;20198;-80
2023/04/24 01:55:42;;;;;;;0.60;0.60;;;;;;;;;;5078177;28;20239;-79
2023/04/24 01:58:08;;;;;;;0.70;0.70;;;;;;;;;;5076534;28;20167;-79
2023/04/24 02:00:34;;;;;;;0.70;0.70;;;;;;;;;;5077663;28;20250;-79
2023/04/24 02:03:01;;;;;;;0.60;0.60;;;;;;;;;;5078453;28;20174;-79
2023/04/24 02:05:27;;;;;;;0.60;0.60;;;;;;;;;;5079248;28;20210;-81
2023/04/24 02:07:53;;;;;;;0.60;0.60;;;;;;;;;;5077841;28;20178;-80
2023/04/24 02:10:19;;;;;;;0.50;0.50;;;;;;;;;;5078122;28;20198;-80
2023/04/24 02:12:45;;;;;;;0.57;0.57;;;;;;;;;;5077538;28;20193;-78
2023/04/24 02:15:12;;;;;;;0.60;0.60;;;;;;;;;;5077679;28;20577;-79
2023/04/24 02:17:38;;;;;;;0.60;0.60;;;;;;;;;;5078409;28;20875;-77
2023/04/24 02:20:04;;;;;;;0.50;0.50;;;;;;;;;;5078319;28;20174;-80
2023/04/24 02:22:30;;;;;;;0.53;0.53;;;;;;;;;;5077830;28;20277;-79
2023/04/24 02:24:56;;;;;;;0.60;0.60;;;;;;;;;;5078401;28;20283;-77
2023/04/24 02:27:22;;;;;;;0.60;0.60;;;;;;;;;;5077951;28;20181;-78
2023/04/24 02:29:48;;;;;;;0.50;0.50;;;;;;;;;;5077464;28;20261;-80
2023/04/24 02:32:15;;;;;;;0.57;0.57;;;;;;;;;;5077137;28;20247;-80
2023/04/24 02:34:41;;;;;;;0.60;0.60;;;;;;;;;;5077322;28;20216;-79
2023/04/24 02:37:07;;;;;;;0.60;0.60;;;;;;;;;;5079634;28;20174;-80
2023/04/24 02:39:33;;;;;;;0.60;0.60;;;;;;;;;;5079623;28;20196;-80
2023/04/24 02:41:59;;;;;;;0.57;0.57;;;;;;;;;;5077410;28;20179;-79
2023/04/24 02:44:25;;;;;;;0.70;0.70;;;;;;;;;;5077707;28;20214;-79
2023/04/24 02:46:51;;;;;;;0.60;0.60;;;;;;;;;;5077180;28;20201;-80
2023/04/24 02:49:17;;;;;;;0.70;0.70;;;;;;;;;;5076955;28;20335;-80
2023/04/24 02:51:43;;;;;;;0.63;0.63;;;;;;;;;;5078240;28;20182;-80
2023/04/24 02:54:09;;;;;;;0.57;0.57;;;;;;;;;;5078481;28;20263;-81
2023/04/24 02:56:35;;;;;;;0.70;0.70;;;;;;;;;;5079239;28;20166;-79
2023/04/24 02:59:01;;;;;;;0.60;0.60;;;;;;;;;;5079178;28;20185;-79
2023/04/24 03:01:27;;;;;;;0.60;0.60;;;;;;;;;;5079720;28;20174;-81
2023/04/24 03:03:53;;;;;;;0.60;0.60;;;;;;;;;;5078553;28;20209;-79
2023/04/24 03:06:20;;;;;;;0.60;0.60;;;;;;;;;;5080789;28;20170;-80
2023/04/24 03:08:46;;;;;;;0.50;0.50;;;;;;;;;;5079917;28;20560;-79
2023/04/24 03:11:12;;;;;;;0.60;0.60;;;;;;;;;;5079799;28;20642;-81
2023/04/24 03:13:38;;;;;;;0.57;0.57;;;;;;;;;;5079728;28;20210;-78
2023/04/24 03:16:05;;;;;;;0.60;0.60;;;;;;;;;;5080343;28;20700;-78
2023/04/24 03:18:31;;;;;;;0.60;0.60;;;;;;;;;;5077467;28;20171;-78
2023/04/24 03:20:57;;;;;;;0.67;0.67;;;;;;;;;;5076408;28;20691;-78
2023/04/24 03:23:23;;;;;;;0.50;0.50;;;;;;;;;;5075797;28;20195;-81
2023/04/24 03:25:49;;;;;;;0.70;0.70;;;;;;;;;;5077517;28;20201;-80
2023/04/24 03:28:15;;;;;;;0.60;0.60;;;;;;;;;;5076945;28;20545;-80
2023/04/24 03:30:41;;;;;;;0.60;0.60;;;;;;;;;;5076555;28;20178;-80
2023/04/24 03:33:07;;;;;;;0.53;0.53;;;;;;;;;;5076469;28;20236;-80
2023/04/24 03:35:33;;;;;;;0.70;0.70;;;;;;;;;;5076133;28;20619;-79
2023/04/24 03:37:59;;;;;;;0.50;0.50;;;;;;;;;;5076725;28;20174;-78
2023/04/24 03:40:25;;;;;;;0.53;0.53;;;;;;;;;;5077272;28;20216;-80
2023/04/24 03:42:51;;;;;;;0.60;0.60;;;;;;;;;;5076579;28;20178;-79
2023/04/24 03:45:17;;;;;;;0.63;0.63;;;;;;;;;;5076622;28;20633;-80
2023/04/24 03:47:43;;;;;;;0.50;0.50;;;;;;;;;;5076256;28;20191;-78
2023/04/24 03:50:09;;;;;;;0.70;0.70;;;;;;;;;;5076313;28;20182;-78
2023/04/24 03:52:36;;;;;;;0.57;0.57;;;;;;;;;;5075936;28;20269;-82
2023/04/24 03:55:02;;;;;;;0.70;0.70;;;;;;;;;;5075877;28;20227;-80
2023/04/24 03:57:28;;;;;;;0.60;0.60;;;;;;;;;;5075764;28;20171;-80
2023/04/24 03:59:55;;;;;;;0.60;0.60;;;;;;;;;;5074510;28;20182;-82
2023/04/24 04:02:21;;;;;;;0.60;0.60;;;;;;;;;;5074903;28;20189;-78
2023/04/24 04:04:47;;;;;;;0.60;0.60;;;;;;;;;;5074919;28;20199;-79
2023/04/24 04:07:13;;;;;;;0.70;0.70;;;;;;;;;;5074678;28;20184;-80
2023/04/24 04:09:39;;;;;;;0.60;0.60;;;;;;;;;;5075229;28;20203;-79
2023/04/24 04:12:05;;;;;;;0.60;0.60;;;;;;;;;;5075407;28;20231;-80
2023/04/24 04:14:31;;;;;;;0.60;0.60;;;;;;;;;;5074528;28;20210;-80
2023/04/24 04:16:57;;;;;;;0.70;0.70;;;;;;;;;;5074848;28;20173;-78
2023/04/24 04:19:23;;;;;;;0.67;0.67;;;;;;;;;;5075694;28;20267;-78
2023/04/24 04:21:52;;;;;;;0.70;0.70;;;;;;;;;;5075895;28;20167;-79
2023/04/24 04:24:20;;;;;;;0.60;0.60;;;;;;;;;;5075094;28;20580;-81
2023/04/24 04:26:46;;;;;;;0.70;0.70;;;;;;;;;;5075865;28;20220;-81
2023/04/24 04:29:13;;;;;;;0.63;0.63;;;;;;;;;;5075218;28;20691;-80
2023/04/24 04:31:39;;;;;;;0.60;0.60;;;;;;;;;;5074812;28;20186;-78
2023/04/24 04:34:05;;;;;;;0.60;0.60;;;;;;;;;;5080082;28;20296;-80
2023/04/24 04:36:32;;;;;;;0.60;0.60;;;;;;;;;;5095788;28;20640;-79
2023/04/24 04:38:59;;;;;;;0.77;0.77;;;;;;;;;;5095374;28;20226;-79
2023/04/24 04:41:26;;;;;;;0.60;0.60;;;;;;;;;;5095351;28;20571;-77
2023/04/24 04:43:52;;;;;;;0.60;0.60;;;;;;;;;;5094630;28;20301;-78
2023/04/24 04:46:18;;;;;;;0.67;0.67;;;;;;;;;;5101321;28;20335;-77
2023/04/24 04:48:45;;;;;;;0.60;0.60;;;;;;;;;;5106309;28;20241;-79
2023/04/24 04:51:11;;;;;;;0.60;0.60;;;;;;;;;;5110600;28;20166;-78
2023/04/24 04:53:37;;;;;;;0.70;0.70;;;;;;;;;;5110210;28;20200;-79
2023/04/24 04:56:03;;;;;;;0.60;0.60;;;;;;;;;;5107774;28;20162;-81
2023/04/24 04:58:29;;;;;;;0.60;0.60;;;;;;;;;;5136089;22;20221;-85
2023/04/24 05:00:57;;;;;;;0.60;0.60;;;;;;;;;;5095776;28;20664;-84
2023/04/24 05:03:23;;;;;;;0.60;0.60;;;;;;;;;;5095226;28;20208;-85
2023/04/24 05:05:49;;;;;;;0.60;0.60;;;;;;;;;;5096437;28;20197;-85
2023/04/24 05:08:15;;;;;;;0.70;0.70;;;;;;;;;;5097433;28;20198;-84
2023/04/24 05:10:41;;;;;;;0.67;0.67;;;;;;;;;;5098041;28;20703;-85
2023/04/24 05:13:07;;;;;;;0.53;0.53;;;;;;;;;;5096110;28;20625;-83
2023/04/24 05:15:33;;;;;;;0.70;0.70;;;;;;;;;;5095702;28;20282;-83
2023/04/24 05:17:59;;;;;;;0.60;0.60;;;;;;;;;;5095733;28;20169;-82
2023/04/24 05:20:25;;;;;;;0.63;0.63;;;;;;;;;;5096289;28;20184;-83
2023/04/24 05:22:51;;;;;;;0.60;0.60;;;;;;;;;;5095594;28;20187;-82
2023/04/24 05:25:17;;;;;;;0.70;0.70;;;;;;;;;;5095803;28;20628;-83
2023/04/24 05:27:43;;;;;;;0.70;0.70;;;;;;;;;;5099250;28;20177;-82
2023/04/24 05:30:10;;;;;;;0.73;0.73;;;;;;;;;;5099695;28;20176;-83
2023/04/24 05:32:36;;;;;;;0.70;0.70;;;;;;;;;;5098885;28;20196;-82
2023/04/24 05:35:02;;;;;;;0.60;0.60;;;;;;;;;;5100247;28;20696;-83
2023/04/24 05:37:28;;;;;;;0.67;0.67;;;;;;;;;;5098080;28;20181;-82
2023/04/24 05:39:54;;;;;;;0.70;0.70;;;;;;;;;;5098988;28;20182;-83
2023/04/24 05:42:19;;;;;;;0.60;0.60;;;;;;;;;;5098822;28;20178;-82
2023/04/24 05:44:45;;;;;;;0.70;0.70;;;;;;;;;;5097615;28;20194;-82
2023/04/24 05:47:11;;;;;;;0.50;0.50;;;;;;;;;;5098915;28;20706;-82
2023/04/24 05:49:37;;;;;;;0.70;0.70;;;;;;;;;;5080003;28;20174;-83
2023/04/24 05:52:05;;;;;;;0.50;0.50;;;;;;;;;;5099264;28;20193;-83
2023/04/24 05:54:31;;;;;;;0.60;0.60;;;;;;;;;;5098184;28;20220;-83
2023/04/24 05:56:57;;;;;;;0.60;0.60;;;;;;;;;;5099189;28;20230;-82
2023/04/24 05:59:23;;;;;;;0.60;0.60;;;;;;;;;;5099073;28;20180;-83
2023/04/24 06:01:49;;;;;;;0.60;0.60;;;;;;;;;;5099128;28;20178;-82
2023/04/24 06:04:15;;;;;;;0.50;0.50;;;;;;;;;;5098540;28;20201;-82
2023/04/24 06:06:41;;;;;;;0.50;0.50;;;;;;;;;;5098606;28;20182;-83
2023/04/24 06:09:07;;;;;;;0.70;0.70;;;;;;;;;;5098718;28;20181;-83
2023/04/24 06:11:33;;;;;;;0.63;0.63;;;;;;;;;;5098479;28;20211;-83
2023/04/24 06:13:59;;;;;;;0.50;0.50;;;;;;;;;;5097916;28;20292;-82
2023/04/24 06:16:25;;;;;;;0.60;0.60;;;;;;;;;;5098901;28;20174;-83
2023/04/24 06:18:51;;;;;;;0.50;0.50;;;;;;;;;;5098110;28;20219;-82
2023/04/24 06:21:17;;;;;;;0.70;0.70;;;;;;;;;;5098367;28;20693;-82
2023/04/24 06:23:43;;;;;;;0.60;0.60;;;;;;;;;;5097898;28;20205;-82
2023/04/24 06:26:09;;;;;;;0.70;0.70;;;;;;;;;;5104943;28;20181;-82
2023/04/24 06:28:35;;;;;;;0.53;0.53;;;;;;;;;;5101985;28;20684;-82
2023/04/24 06:31:01;;;;;;;0.50;0.50;;;;;;;;;;5098073;28;20497;-83
2023/04/24 06:33:27;;;;;;;0.50;0.50;;;;;;;;;;5097569;28;20668;-82
2023/04/24 06:35:53;;;;;;;0.60;0.60;;;;;;;;;;5098200;28;20234;-83
2023/04/24 06:38:19;;;;;;;0.70;0.70;;;;;;;;;;5097324;28;20173;-82
2023/04/24 06:40:45;;;;;;;0.70;0.70;;;;;;;;;;5098204;28;20188;-82
2023/04/24 06:43:11;;;;;;;0.50;0.50;;;;;;;;;;5088306;28;20174;-83
2023/04/24 06:45:39;;;;;;;0.50;0.50;;;;;;;;;;5096315;28;20186;-83
2023/04/24 06:48:05;;;;;;;0.60;0.60;;;;;;;;;;5096164;28;20223;-84
2023/04/24 06:50:31;;;;;;;0.53;0.53;;;;;;;;;;5095113;28;20170;-84
2023/04/24 06:52:57;;;;;;;0.60;0.60;;;;;;;;;;5094428;28;20629;-84
2023/04/24 06:55:23;;;;;;;0.60;0.60;;;;;;;;;;5094083;28;20274;-84
2023/04/24 06:57:49;;;;;;;0.60;0.60;;;;;;;;;;5095384;28;20203;-83
2023/04/24 07:00:15;;;;;;;0.50;0.50;;;;;;;;;;5095713;28;20547;-82
2023/04/24 07:02:41;;;;;;;0.57;0.57;;;;;;;;;;5095013;28;20178;-83
2023/04/24 07:05:08;;;;;;;0.40;0.40;;;;;;;;;;5097133;28;20201;-83
2023/04/24 07:07:34;;;;;;;0.50;0.50;;;;;;;;;;5097329;28;20204;-83
2023/04/24 07:10:00;;;;;;;0.50;0.50;;;;;;;;;;5097655;28;20181;-84
2023/04/24 07:12:26;;;;;;;0.60;0.60;;;;;;;;;;5096178;28;20710;-84
2023/04/24 07:14:52;;;;;;;0.50;0.50;;;;;;;;;;5098684;28;20210;-83
2023/04/24 07:17:18;;;;;;;0.40;0.40;;;;;;;;;;5097671;28;20184;-84
2023/04/24 07:19:45;;;;;;;0.40;0.40;;;;;;;;;;5097922;28;20174;-83
2023/04/24 07:22:16;;;;;;;0.50;0.50;;;;;;;;;;5098471;28;20174;-84
2023/04/24 07:24:43;;;;;;;0.60;0.60;;;;;;;;;;5099128;28;20194;-83
2023/04/24 07:27:09;;;;;;;0.50;0.50;;;;;;;;;;5108840;28;20173;-82
2023/04/24 07:29:35;;;;;;;0.50;0.50;;;;;;;;;;5106275;28;20656;-84
2023/04/24 07:32:01;;;;;;;0.50;0.50;;;;;;;;;;5105574;28;20173;-83
2023/04/24 07:34:27;;;;;;;0.50;0.50;;;;;;;;;;5105996;28;20209;-82
2023/04/24 07:36:53;;;;;;;0.60;0.60;;;;;;;;;;5097294;28;20609;-81
2023/04/24 07:39:19;;;;;;;0.60;0.60;;;;;;;;;;5099355;28;20194;-83
2023/04/24 07:41:45;;;;;;;0.60;0.60;;;;;;;;;;5099232;28;20280;-83
2023/04/24 07:44:11;;;;;;;0.60;0.60;;;;;;;;;;5098790;28;20656;-82
2023/04/24 07:46:37;;;;;;;0.60;0.60;;;;;;;;;;5098557;28;20265;-83
2023/04/24 07:49:04;;;;;;;0.60;0.60;;;;;;;;;;5098519;28;20660;-83
2023/04/24 07:51:31;;;;;;;0.50;0.50;;;;;;;;;;5099201;28;20188;-84
2023/04/24 07:53:57;;;;;;;0.53;0.53;;;;;;;;;;5099114;28;20235;-83
2023/04/24 07:56:23;;;;;;;0.50;0.50;;;;;;;;;;5099345;28;20237;-83
2023/04/24 07:58:49;;;;;;;0.47;0.47;;;;;;;;;;5098747;28;20233;-84
2023/04/24 08:01:15;;;;;;;0.30;0.30;;;;;;;;;;5098776;28;20653;-83
2023/04/24 08:03:41;;;;;;;0.37;0.37;;;;;;;;;;5098752;28;20206;-83
2023/04/24 08:06:07;;;;;;;0.40;0.40;;;;;;;;;;5099518;28;20261;-84
2023/04/24 08:08:33;;;;;;;0.40;0.40;;;;;;;;;;5100001;28;20211;-84
2023/04/24 08:10:59;;;;;;;0.40;0.40;;;;;;;;;;5101027;28;20644;-83
2023/04/24 08:13:25;;;;;;;0.30;0.30;;;;;;;;;;5100733;28;20194;-83
2023/04/24 08:15:51;;;;;;;0.33;0.33;;;;;;;;;;5102284;28;20683;-83
2023/04/24 08:18:17;;;;;;;0.30;0.30;;;;;;;;;;5102585;28;20184;-83
2023/04/24 08:20:45;;;;;;;0.30;0.30;;;;;;;;;;5117344;28;20189;-83
2023/04/24 08:23:11;;;;;;;0.30;0.30;;;;;;;;;;5116518;28;20185;-83
2023/04/24 08:25:37;;;;;;;0.50;0.50;;;;;;;;;;5116052;28;20239;-83
2023/04/24 08:28:04;;;;;;;0.47;0.47;;;;;;;;;;5115617;28;20174;-83
2023/04/24 08:30:30;;;;;;;0.50;0.50;;;;;;;;;;5100476;28;20174;-82
2023/04/24 08:32:56;;;;;;;0.40;0.40;;;;;;;;;;5096295;28;20591;-82
2023/04/24 08:35:22;;;;;;;0.30;0.30;;;;;;;;;;5089039;28;20218;-83
2023/04/24 08:37:48;;;;;;;0.40;0.40;;;;;;;;;;5078258;28;20557;-83
2023/04/24 08:40:15;;;;;;;0.43;0.43;;;;;;;;;;5094668;28;20620;-81
2023/04/24 08:42:44;;;;;;;0.50;0.50;;;;;;;;;;5095539;28;20566;-83
2023/04/24 08:45:13;;;;;;;0.47;0.47;;;;;;;;;;5096036;28;20197;-83
2023/04/24 08:47:40;;;;;;;0.50;0.50;;;;;;;;;;5087037;28;20198;-82
2023/04/24 08:50:07;;;;;;;0.43;0.43;;;;;;;;;;5076645;28;20186;-82
2023/04/24 08:52:34;;;;;;;0.30;0.30;;;;;;;;;;5091764;28;20216;-83
2023/04/24 08:55:03;;;;;;;0.40;0.40;;;;;;;;;;5091260;28;20202;-82
2023/04/24 08:57:29;;;;;;;0.40;0.40;;;;;;;;;;5075365;28;20736;-83
2023/04/24 08:59:56;;;;;;;0.37;0.37;;;;;;;;;;5070867;28;20173;-82
2023/04/24 09:02:23;;;;;;;0.30;0.30;;;;;;;;;;5080534;28;20170;-84
2023/04/24 09:04:50;;;;;;;0.40;0.40;;;;;;;;;;5079735;28;20283;-84
2023/04/24 09:07:17;;;;;;;0.30;0.30;;;;;;;;;;5088527;28;20236;-84
2023/04/24 09:09:43;;;;;;;0.40;0.40;;;;;;;;;;5086368;28;20520;-83
2023/04/24 09:12:10;;;;;;;0.40;0.40;;;;;;;;;;5083675;28;20171;-84
2023/04/24 09:14:39;;;;;;;0.40;0.40;;;;;;;;;;5090583;28;20232;-83
2023/04/24 09:17:05;;;;;;;0.40;0.40;;;;;;;;;;5080781;28;20189;-82
2023/04/24 09:19:31;;;;;;;0.33;0.33;;;;;;;;;;5085432;28;20206;-83
2023/04/24 09:21:57;;;;;;;0.40;0.40;;;;;;;;;;5087165;28;20200;-84
2023/04/24 09:24:24;;;;;;;0.40;0.40;;;;;;;;;;5077945;28;20194;-83
2023/04/24 09:26:57;;;;;;;0.50;0.50;;;;;;;;;;5093586;28;20245;-84
2023/04/24 09:29:23;;;;;;;0.30;0.30;;;;;;;;;;5089369;28;20311;-83
2023/04/24 09:31:49;;;;;;;0.43;0.43;;;;;;;;;;5087218;28;20201;-82
2023/04/24 09:34:19;;;;;;;0.37;0.37;;;;;;;;;;5094443;28;20216;-83
2023/04/24 09:36:45;;;;;;;0.40;0.40;;;;;;;;;;5095442;28;20173;-83
2023/04/24 09:39:12;;;;;;;0.43;0.43;;;;;;;;;;5094986;28;20480;-83
2023/04/24 09:41:45;;;;;;;0.40;0.40;;;;;;;;;;5084589;28;20171;-84
2023/04/24 09:44:15;;;;;;;0.57;0.57;;;;;;;;;;5089902;28;20202;-84
2023/04/24 09:46:45;;;;;;;0.40;0.40;;;;;;;;;;5078877;28;20525;-85
2023/04/24 09:49:16;;;;;;;0.30;0.30;;;;;;;;;;5088930;28;20251;-84
2023/04/24 09:51:42;;;;;;;0.30;0.30;;;;;;;;;;5081329;28;20705;-84
2023/04/24 09:54:18;;;;;;;0.30;0.30;;;;;;;;;;5098645;28;20214;-84
2023/04/24 09:56:45;;;;;;;0.30;0.30;;;;;;;;;;5103849;28;20251;-85
2023/04/24 09:59:11;;;;;;;0.40;0.40;;;;;;;;;;5107999;28;20207;-86
2023/04/24 10:01:38;;;;;;;0.30;0.30;;;;;;;;;;5091643;28;20171;-84
2023/04/24 10:04:04;;;;;;;0.30;0.30;;;;;;;;;;5093922;28;20198;-84
2023/04/24 10:06:32;;;;;;;0.33;0.33;;;;;;;;;;5106218;28;20175;-85
2023/04/24 10:08:58;;;;;;;0.30;0.30;;;;;;;;;;5099363;28;20215;-85
2023/04/24 10:11:27;;;;;;;0.30;0.30;;;;;;;;;;5106975;28;20212;-85
2023/04/24 10:13:53;;;;;;;0.40;0.40;;;;;;;;;;5108593;28;20186;-85
2023/04/24 10:16:20;;;;;;;0.33;0.33;;;;;;;;;;5104692;28;20192;-82
2023/04/24 10:18:46;;;;;;;0.40;0.40;;;;;;;;;;5099512;28;20197;-83
2023/04/24 10:21:13;;;;;;;0.40;0.40;;;;;;;;;;5097880;28;20235;-83
2023/04/24 10:23:39;;;;;;;0.40;0.40;;;;;;;;;;5097948;28;20512;-83
2023/04/24 10:26:06;;;;;;;0.30;0.30;;;;;;;;;;5098964;28;20265;-84
2023/04/24 10:28:32;;;;;;;0.40;0.40;;;;;;;;;;5098972;28;20235;-84
2023/04/24 10:30:58;;;;;;;0.40;0.40;;;;;;;;;;5099184;28;20217;-85
2023/04/24 10:33:25;;;;;;;0.40;0.40;;;;;;;;;;5099537;28;20540;-84
2023/04/24 10:35:51;;;;;;;0.40;0.40;;;;;;;;;;5101103;28;20201;-85
2023/04/24 10:38:23;;;;;;;0.40;0.40;;;;;;;;;;5101430;28;20185;-84
2023/04/24 10:40:49;;;;;;;0.40;0.40;;;;;;;;;;5100749;28;20170;-85
2023/04/24 10:43:17;;;;;;;0.40;0.40;;;;;;;;;;5099383;28;20185;-84
2023/04/24 10:46:00;;;;;;;0.33;0.33;;;;;;;;;;5099287;28;20205;-84
2023/04/24 10:48:27;;;;;;;0.30;0.30;;;;;;;;;;5099255;28;20166;-83
2023/04/24 10:50:53;;;;;;;0.30;0.30;;;;;;;;;;5098915;28;20197;-85
2023/04/24 10:53:23;;;;;;;0.40;0.40;;;;;;;;;;5097974;28;20186;-83
2023/04/24 10:55:50;;;;;;;0.40;0.40;;;;;;;;;;5099830;28;20202;-85
2023/04/24 10:58:16;;;;;;;0.40;0.40;;;;;;;;;;5121642;22;20260;-83
2023/04/24 11:00:44;;;;;;;0.43;0.43;;;;;;;;;;5100692;28;20182;-86
2023/04/24 11:03:24;;;;;;;0.33;0.33;;;;;;;;;;5100841;28;20193;-83
2023/04/24 11:05:52;;;;;;;0.40;0.40;;;;;;;;;;5106732;28;20170;-86
2023/04/24 11:08:28;;;;;;;0.43;0.43;;;;;;;;;;5109085;28;20178;-85
2023/04/24 11:10:58;;;;;;;0.50;0.50;;;;;;;;;;5110371;28;20185;-85
2023/04/24 11:13:25;;;;;;;0.40;0.40;;;;;;;;;;5106822;28;20346;-83
2023/04/24 11:16:10;;;;;;;0.40;0.40;;;;;;;;;;5106922;28;20227;-81
2023/04/24 11:18:40;;;;;;;0.40;0.40;;;;;;;;;;5106906;28;20166;-85
2023/04/24 11:21:18;;;;;;;0.40;0.40;;;;;;;;;;5104645;28;20174;-83
2023/04/24 11:23:45;;;;;;;0.60;0.60;;;;;;;;;;5114218;28;20220;-82
2023/04/24 11:26:19;;;;;;;0.50;0.50;;;;;;;;;;5114555;28;20174;-84
2023/04/24 11:28:49;;;;;;;0.47;0.47;;;;;;;;;;5104096;28;20639;-82
2023/04/24 11:31:33;;;;;;;0.40;0.40;;;;;;;;;;5097005;28;20274;-81
2023/04/24 11:34:06;;;;;;;0.60;0.60;;;;;;;;;;5096210;28;20216;-81
2023/04/24 11:36:32;;;;;;;0.43;0.43;;;;;;;;;;5097703;28;20199;-84
2023/04/24 11:38:58;;;;;;;0.43;0.43;;;;;;;;;;5097661;28;20197;-85
2023/04/24 11:41:25;;;;;;;0.47;0.47;;;;;;;;;;5096632;28;20174;-81
2023/04/24 11:43:52;;;;;;;0.50;0.50;;;;;;;;;;5096632;28;20201;-82
2023/04/24 11:46:18;;;;;;;0.30;0.30;;;;;;;;;;5097490;28;20206;-81
2023/04/24 11:48:47;;;;;;;0.40;0.40;;;;;;;;;;5097381;28;20543;-80
2023/04/24 11:51:13;;;;;;;0.50;0.50;;;;;;;;;;5097088;28;20189;-81
2023/04/24 11:53:39;;;;;;;0.50;0.50;;;;;;;;;;5097323;28;20193;-82
2023/04/24 11:56:05;;;;;;;0.47;0.47;;;;;;;;;;5097285;28;20646;-81
2023/04/24 11:58:38;;;;;;;0.50;0.50;;;;;;;;;;5096215;28;20235;-84
2023/04/24 12:01:05;;;;;;;0.50;0.50;;;;;;;;;;5096323;28;20178;-82
2023/04/24 12:03:31;;;;;;;0.50;0.50;;;;;;;;;;5095855;28;20186;-81
2023/04/24 12:06:10;;;;;;;0.40;0.40;;;;;;;;;;5097342;28;20180;-82
2023/04/24 12:08:36;;;;;;;0.47;0.47;;;;;;;;;;5096032;28;20177;-80
2023/04/24 12:11:03;;;;;;;0.50;0.50;;;;;;;;;;5096470;28;20165;-83
2023/04/24 12:13:29;;;;;;;0.40;0.40;;;;;;;;;;5096411;28;20249;-83
2023/04/24 12:15:55;;;;;;;0.50;0.50;;;;;;;;;;5096929;28;20212;-83
2023/04/24 12:18:24;;;;;;;0.43;0.43;;;;;;;;;;5096873;28;20249;-82
2023/04/24 12:20:50;;;;;;;0.40;0.40;;;;;;;;;;5097051;28;20532;-79
2023/04/24 12:23:17;;;;;;;0.50;0.50;;;;;;;;;;5095597;28;20268;-84
2023/04/24 12:25:43;;;;;;;0.40;0.40;;;;;;;;;;5096230;28;20238;-81
2023/04/24 12:28:10;;;;;;;0.40;0.40;;;;;;;;;;5094716;28;20178;-83
2023/04/24 12:30:49;;;;;;;0.43;0.43;;;;;;;;;;5091549;28;20174;-82
2023/04/24 12:33:19;;;;;;;0.53;0.53;;;;;;;;;;5094954;28;20697;-82
2023/04/24 12:35:46;;;;;;;0.60;0.60;;;;;;;;;;5086750;28;20228;-79
2023/04/24 12:38:13;;;;;;;0.60;0.60;;;;;;;;;;5095302;28;20200;-80
2023/04/24 12:40:41;;;;;;;0.50;0.50;;;;;;;;;;5081912;28;20204;-79
2023/04/24 12:43:16;;;;;;;0.40;0.40;;;;;;;;;;5085046;28;20194;-81
2023/04/24 12:45:42;;;;;;;0.50;0.50;;;;;;;;;;5081418;28;20542;-80
2023/04/24 12:48:08;;;;;;;0.50;0.50;;;;;;;;;;5095681;28;20681;-80
2023/04/24 12:50:34;;;;;;;0.40;0.40;;;;;;;;;;5094940;28;20209;-81
2023/04/24 12:53:00;;;;;;;0.57;0.57;;;;;;;;;;5095742;28;20660;-82
2023/04/24 12:55:26;;;;;;;0.50;0.50;;;;;;;;;;5095383;28;20216;-82
2023/04/24 12:57:55;;;;;;;0.50;0.50;;;;;;;;;;5095125;28;20210;-80
2023/04/24 13:00:21;;;;;;;0.50;0.50;;;;;;;;;;5095542;28;20536;-80
2023/04/24 13:02:47;;;;;;;0.57;0.57;;;;;;;;;;5094226;28;20178;-81
2023/04/24 13:05:13;;;;;;;0.40;0.40;;;;;;;;;;5095261;28;20308;-81
2023/04/24 13:07:39;;;;;;;0.53;0.53;;;;;;;;;;5090615;28;20242;-80
2023/04/24 13:10:06;;;;;;;0.50;0.50;;;;;;;;;;5085932;28;20177;-81
2023/04/24 13:12:32;;;;;;;0.60;0.60;;;;;;;;;;5095254;28;20217;-80
2023/04/24 13:14:59;;;;;;;0.60;0.60;;;;;;;;;;5095802;28;20229;-80
2023/04/24 13:17:25;;;;;;;0.60;0.60;;;;;;;;;;5095043;28;20652;-80
2023/04/24 13:19:51;;;;;;;0.60;0.60;;;;;;;;;;5094922;28;20525;-82
2023/04/24 13:22:18;;;;;;;0.50;0.50;;;;;;;;;;5094982;28;20655;-81
2023/04/24 13:24:44;;;;;;;0.60;0.60;;;;;;;;;;5095934;28;20203;-81
2023/04/24 13:27:10;;;;;;;0.60;0.60;;;;;;;;;;5096301;28;20302;-81
2023/04/24 13:29:37;;;;;;;0.50;0.50;;;;;;;;;;5096214;28;20252;-81
2023/04/24 13:32:03;;;;;;;0.50;0.50;;;;;;;;;;5095410;28;20178;-81
2023/04/24 13:34:29;;;;;;;0.63;0.63;;;;;;;;;;5094979;28;20296;-80
2023/04/24 13:36:56;;;;;;;0.50;0.50;;;;;;;;;;5095301;28;20689;-80
2023/04/24 13:39:22;;;;;;;0.50;0.50;;;;;;;;;;5095281;28;20558;-79
2023/04/24 13:41:48;;;;;;;0.57;0.57;;;;;;;;;;5094694;28;20213;-80
2023/04/24 13:44:15;;;;;;;0.50;0.50;;;;;;;;;;5094733;28;20685;-81
2023/04/24 13:46:41;;;;;;;0.47;0.47;;;;;;;;;;5095679;28;20265;-81
2023/04/24 13:49:07;;;;;;;0.40;0.40;;;;;;;;;;5098633;28;20169;-81
2023/04/24 13:51:33;;;;;;;0.50;0.50;;;;;;;;;;5099358;28;20225;-80
2023/04/24 13:53:59;;;;;;;0.50;0.50;;;;;;;;;;5098966;28;20206;-79
2023/04/24 13:56:26;;;;;;;0.47;0.47;;;;;;;;;;5099964;28;20288;-81
2023/04/24 13:58:54;;;;;;;0.60;0.60;;;;;;;;;;5097844;28;20201;-82
2023/04/24 14:01:23;;;;;;;0.60;0.60;;;;;;;;;;5100103;28;20188;-81
2023/04/24 14:03:50;;;;;;;0.40;0.40;;;;;;;;;;5097616;28;20197;-80
2023/04/24 14:06:16;;;;;;;0.40;0.40;;;;;;;;;;5098065;28;20323;-79
2023/04/24 14:08:42;;;;;;;0.50;0.50;;;;;;;;;;5111609;28;20181;-80
2023/04/24 14:11:08;;;;;;;0.50;0.50;;;;;;;;;;5107071;28;20281;-82
2023/04/24 14:13:34;;;;;;;0.40;0.40;;;;;;;;;;5100038;28;20289;-80
2023/04/24 14:16:00;;;;;;;0.50;0.50;;;;;;;;;;5100081;28;20262;-81
2023/04/24 14:18:26;;;;;;;0.40;0.40;;;;;;;;;;5100175;28;20178;-81
2023/04/24 14:20:52;;;;;;;0.50;0.50;;;;;;;;;;5100287;28;20189;-80
2023/04/24 14:23:18;;;;;;;0.60;0.60;;;;;;;;;;5091902;28;20203;-81
2023/04/24 14:25:45;;;;;;;0.47;0.47;;;;;;;;;;5089786;28;20181;-82
2023/04/24 14:28:11;;;;;;;0.50;0.50;;;;;;;;;;5098974;28;20185;-81
2023/04/24 14:30:37;;;;;;;0.50;0.50;;;;;;;;;;5095250;28;20185;-79
2023/04/24 14:33:04;;;;;;;0.53;0.53;;;;;;;;;;5097594;28;20188;-80
2023/04/24 14:35:32;;;;;;;0.40;0.40;;;;;;;;;;5098691;28;20213;-80
2023/04/24 14:37:59;;;;;;;0.60;0.60;;;;;;;;;;5098162;28;20269;-80
2023/04/24 14:40:25;;;;;;;0.60;0.60;;;;;;;;;;5097848;28;20170;-79